Time;durP1;ratioP1;P1;durP2;ratioP2;P2;SDS_P1;SDS_P2;PMS_P1;PMS_P2;Temp;Humidity;BMP_temperature;BMP_pressure;BME280_temperature;BME280_humidity;BME280_pressure;Samples;Min_cycle;Max_cycle;Signal;HPM_P1;HPM_P2
2022/05/14 00:01:13;;;;;;;9.73;7.35;;;14.90;99.90;;;;;;4979915;28;20096;-71
2022/05/14 00:03:41;;;;;;;10.50;7.70;;;14.90;99.90;;;;;;4978918;28;20112;-67
2022/05/14 00:06:11;;;;;;;9.60;7.80;;;14.90;99.90;;;;;;4977909;28;20048;-69
2022/05/14 00:08:39;;;;;;;12.57;8.60;;;14.90;99.90;;;;;;4976592;28;20038;-70
2022/05/14 00:13:53;;;;;;;8.38;6.38;;;14.90;99.90;;;;;;4978463;28;20050;-69
2022/05/14 00:16:23;;;;;;;7.10;6.40;;;14.90;99.90;;;;;;4985329;28;20096;-70
2022/05/14 00:18:51;;;;;;;9.13;6.95;;;14.90;99.90;;;;;;5010268;28;20124;-67
2022/05/14 00:21:20;;;;;;;13.68;7.45;;;14.90;99.90;;;;;;4997265;28;20052;-68
2022/05/14 00:23:47;;;;;;;9.60;7.25;;;14.90;99.90;;;;;;4997092;28;20041;-69
2022/05/14 00:26:15;;;;;;;10.98;8.32;;;14.90;99.90;;;;;;4997136;28;20046;-69
2022/05/14 00:28:42;;;;;;;10.80;7.40;;;14.90;99.90;;;;;;4992339;28;20042;-69
2022/05/14 00:31:09;;;;;;;15.60;7.32;;;14.90;99.90;;;;;;5012703;28;20050;-68
2022/05/14 00:33:36;;;;;;;9.13;6.82;;;14.90;99.90;;;;;;4998790;28;20050;-69
2022/05/14 00:36:04;;;;;;;8.25;6.63;;;14.90;99.90;;;;;;4997027;28;20516;-68
2022/05/14 00:38:31;;;;;;;9.02;7.20;;;14.90;99.90;;;;;;4987999;28;20112;-68
2022/05/14 00:41:04;;;;;;;14.05;8.30;;;14.80;99.90;;;;;;4986597;28;20046;-67
2022/05/14 00:43:32;;;;;;;9.25;7.03;;;14.80;99.90;;;;;;4977181;28;20042;-69
2022/05/14 00:46:13;;;;;;;11.38;7.45;;;14.80;99.90;;;;;;4976996;28;20050;-67
2022/05/14 00:48:42;;;;;;;12.70;8.73;;;14.80;99.90;;;;;;4974680;28;20038;-69
2022/05/14 00:51:15;;;;;;;9.30;8.00;;;14.80;99.90;;;;;;4975536;28;20405;-69
2022/05/14 00:53:50;;;;;;;10.00;7.97;;;14.80;99.90;;;;;;4977072;28;20050;-67
2022/05/14 00:56:23;;;;;;;8.48;6.68;;;14.80;99.90;;;;;;4976452;28;20049;-67
2022/05/14 00:58:55;;;;;;;12.00;8.25;;;14.80;99.90;;;;;;4976188;28;20039;-69
2022/05/14 01:01:22;;;;;;;11.77;9.00;;;14.80;99.90;;;;;;4975339;28;20061;-68
2022/05/14 01:03:50;;;;;;;13.55;8.35;;;14.70;99.90;;;;;;4975848;28;20151;-68
2022/05/14 01:06:19;;;;;;;14.32;9.07;;;14.70;99.90;;;;;;4975191;28;20112;-68
2022/05/14 01:08:50;;;;;;;14.40;9.38;;;14.60;99.90;;;;;;4973989;28;20038;-68
2022/05/14 01:11:20;;;;;;;14.98;9.95;;;14.60;99.90;;;;;;4975431;28;20046;-68
2022/05/14 01:13:47;;;;;;;14.68;9.88;;;14.50;99.90;;;;;;4976518;28;20102;-68
2022/05/14 01:16:14;;;;;;;14.75;9.27;;;14.50;99.90;;;;;;4982086;28;20097;-69
2022/05/14 01:18:42;;;;;;;17.42;8.35;;;14.50;99.90;;;;;;4995258;28;20073;-68
2022/05/14 01:21:30;;;;;;;17.73;10.10;;;14.50;99.90;;;;;;4996607;28;20108;-69
2022/05/14 01:26:47;;;;;;;14.27;9.10;;;14.40;99.90;;;;;;4998245;28;20169;-70
2022/05/14 01:29:22;;;;;;;9.35;8.30;;;14.40;99.90;;;;;;4995527;28;20443;-67
2022/05/14 01:31:54;;;;;;;;;;;14.40;99.90;;;;;;5016282;28;20127;-68
2022/05/14 01:34:30;;;;;;;;;;;14.40;99.90;;;;;;4998974;28;19925;-67
2022/05/14 01:36:59;;;;;;;14.60;8.90;;;14.50;99.90;;;;;;5014400;28;19935;-68
2022/05/14 01:39:27;;;;;;;17.63;9.63;;;14.50;99.90;;;;;;5006701;28;20785;-67
2022/05/14 01:41:55;;;;;;;10.68;8.10;;;14.50;99.90;;;;;;4981645;28;20512;-68
2022/05/14 01:44:22;;;;;;;11.15;9.35;;;14.40;99.90;;;;;;4995026;28;20125;-67
2022/05/14 01:46:50;;;;;;;9.63;7.45;;;14.50;99.90;;;;;;4979378;28;20043;-69
2022/05/14 01:49:17;;;;;;;12.63;8.93;;;14.40;99.90;;;;;;4980356;28;20085;-69
2022/05/14 01:51:46;;;;;;;10.10;7.95;;;14.40;99.90;;;;;;4994983;28;20061;-69
2022/05/14 01:54:12;;;;;;;10.02;8.25;;;14.40;99.90;;;;;;4978933;28;20052;-67
2022/05/14 01:56:39;;;;;;;;;;;14.40;99.90;;;;;;4979122;28;20058;-70
2022/05/14 01:59:07;;;;;;;15.30;8.17;;;14.40;99.90;;;;;;4994739;28;19930;-67
2022/05/14 02:01:36;;;;;;;16.17;9.52;;;14.30;99.90;;;;;;4977811;28;20554;-69
2022/05/14 02:04:11;;;;;;;10.45;8.43;;;14.30;99.90;;;;;;4995232;28;20052;-68
2022/05/14 02:06:40;;;;;;;9.82;7.15;;;14.30;99.90;;;;;;4979517;28;20039;-70
2022/05/14 02:09:09;;;;;;;10.23;7.07;;;14.30;99.90;;;;;;4979116;28;20038;-70
2022/05/14 02:11:39;;;;;;;15.23;9.88;;;14.20;99.90;;;;;;4978563;28;20074;-67
2022/05/14 02:14:16;;;;;;;14.48;8.68;;;14.20;99.90;;;;;;4979905;28;20066;-69
2022/05/14 02:16:42;;;;;;;;;;;14.20;99.90;;;;;;4990701;28;20527;-69
2022/05/14 02:19:09;;;;;;;10.88;8.73;;;14.10;99.90;;;;;;4998972;28;19925;-68
2022/05/14 02:21:37;;;;;;;13.43;8.52;;;14.20;99.90;;;;;;4997553;28;20056;-68
2022/05/14 02:24:05;;;;;;;19.23;10.55;;;14.10;99.90;;;;;;5002379;28;20545;-68
2022/05/14 02:26:32;;;;;;;14.52;9.88;;;14.10;99.90;;;;;;4999744;28;20045;-70
2022/05/14 02:28:59;;;;;;;15.15;9.77;;;14.10;99.90;;;;;;5008590;28;20094;-69
2022/05/14 02:31:27;;;;;;;17.20;9.32;;;14.10;99.90;;;;;;5006236;28;20129;-68
2022/05/14 02:33:54;;;;;;;12.70;9.30;;;14.10;99.90;;;;;;4999046;28;20580;-69
2022/05/14 02:36:21;;;;;;;;;;;14.10;99.90;;;;;;4999617;28;20038;-67
2022/05/14 02:38:48;;;;;;;17.00;9.07;;;14.10;99.90;;;;;;4972751;28;20016;-67
2022/05/14 02:41:16;;;;;;;11.38;8.02;;;14.10;99.90;;;;;;4986432;28;20068;-70
2022/05/14 02:43:43;;;;;;;13.45;9.57;;;14.10;99.90;;;;;;4979626;28;20057;-67
2022/05/14 02:46:12;;;;;;;14.38;9.30;;;14.10;99.90;;;;;;4977088;28;20049;-69
2022/05/14 02:48:40;;;;;;;12.70;9.73;;;14.00;99.90;;;;;;4978772;28;20920;-66
2022/05/14 02:51:07;;;;;;;17.17;8.77;;;14.00;99.90;;;;;;4961465;28;20038;-68
2022/05/14 02:53:35;;;;;;;12.10;8.75;;;14.00;99.90;;;;;;4977923;28;20138;-68
2022/05/14 02:56:01;;;;;;;15.15;8.43;;;14.00;99.90;;;;;;4978810;28;20543;-67
2022/05/14 03:01:16;;;;;;;17.13;10.40;;;14.00;99.90;;;;;;4986906;28;20053;-69
2022/05/14 03:03:43;;;;;;;14.02;10.52;;;14.00;99.90;;;;;;4996405;28;20057;-69
2022/05/14 03:06:10;;;;;;;14.70;9.02;;;14.00;99.90;;;;;;4998704;28;20030;-69
2022/05/14 03:08:37;;;;;;;15.15;9.68;;;14.00;99.90;;;;;;4995761;28;20111;-68
2022/05/14 03:11:04;;;;;;;13.32;9.07;;;14.00;99.90;;;;;;4997386;28;20764;-67
2022/05/14 03:13:31;;;;;;;14.88;9.48;;;13.90;99.90;;;;;;4996843;28;20046;-67
2022/05/14 03:15:58;;;;;;;14.48;9.88;;;13.90;99.90;;;;;;4996466;28;20053;-68
2022/05/14 03:18:25;;;;;;;15.00;9.80;;;13.90;99.90;;;;;;4996766;28;20074;-67
2022/05/14 03:20:52;;;;;;;;;;;13.90;99.90;;;;;;4997145;28;20045;-67
2022/05/14 03:23:19;;;;;;;12.10;8.10;;;13.80;99.90;;;;;;4996093;28;20028;-68
2022/05/14 03:25:46;;;;;;;11.50;7.60;;;13.80;99.90;;;;;;4998080;28;20092;-69
2022/05/14 03:28:13;;;;;;;13.18;8.45;;;13.80;99.90;;;;;;4995790;28;20049;-70
2022/05/14 03:30:40;;;;;;;11.95;7.35;;;13.80;99.90;;;;;;4993605;28;20061;-69
2022/05/14 03:33:07;;;;;;;;;;;13.80;99.90;;;;;;5002660;28;20386;-68
2022/05/14 03:35:34;;;;;;;10.50;7.60;;;13.80;99.90;;;;;;4997757;28;20016;-69
2022/05/14 03:38:01;;;;;;;8.85;7.30;;;13.80;99.90;;;;;;5006395;28;20513;-67
2022/05/14 03:40:28;;;;;;;9.02;6.82;;;13.80;99.90;;;;;;4990088;28;20062;-66
2022/05/14 03:42:55;;;;;;;9.52;7.50;;;13.80;99.90;;;;;;4960563;28;20050;-67
2022/05/14 03:45:23;;;;;;;13.38;7.57;;;13.80;99.90;;;;;;4933425;28;20061;-66
2022/05/14 03:47:50;;;;;;;9.43;6.57;;;13.80;99.90;;;;;;4940026;28;20128;-67
2022/05/14 03:50:18;;;;;;;9.15;6.82;;;13.90;99.90;;;;;;4956142;28;20226;-66
2022/05/14 03:52:45;;;;;;;10.70;7.55;;;13.90;99.90;;;;;;4952658;28;20073;-66
2022/05/14 03:55:12;;;;;;;8.73;6.70;;;13.90;99.90;;;;;;4940866;28;20073;-66
2022/05/14 03:57:40;;;;;;;9.50;7.35;;;13.90;99.90;;;;;;4950507;28;20042;-66
2022/05/14 04:00:11;;;;;;;9.63;7.15;;;13.90;99.90;;;;;;4951616;28;20117;-66
2022/05/14 04:02:44;;;;;;;11.50;7.63;;;13.90;99.90;;;;;;4953511;28;20046;-66
2022/05/14 04:05:13;;;;;;;11.25;8.38;;;14.00;99.90;;;;;;4952298;28;20030;-66
2022/05/14 04:07:43;;;;;;;9.25;7.05;;;14.00;99.90;;;;;;4950174;28;20064;-66
2022/05/14 04:10:18;;;;;;;13.00;9.07;;;14.00;99.90;;;;;;4954235;28;20191;-68
2022/05/14 04:12:47;;;;;;;11.07;8.48;;;14.00;99.90;;;;;;4937712;28;20052;-65
2022/05/14 04:15:15;;;;;;;11.23;8.73;;;13.90;99.90;;;;;;4949360;28;20049;-56
2022/05/14 04:17:44;;;;;;;12.15;9.02;;;14.00;99.90;;;;;;4977780;28;20211;-56
2022/05/14 04:20:11;;;;;;;12.70;9.32;;;14.00;99.90;;;;;;4949518;28;20382;-56
2022/05/14 04:22:44;;;;;;;17.38;10.55;;;14.00;99.90;;;;;;4952778;28;20037;-57
2022/05/14 04:25:12;;;;;;;11.80;9.10;;;14.10;99.90;;;;;;4974583;28;20586;-55
2022/05/14 04:27:41;;;;;;;13.00;9.65;;;14.10;99.90;;;;;;4996119;28;20060;-55
2022/05/14 04:30:10;;;;;;;12.82;9.15;;;14.10;99.90;;;;;;4995709;28;20042;-54
2022/05/14 04:32:37;;;;;;;14.00;9.85;;;14.10;99.90;;;;;;4991446;28;20519;-54
2022/05/14 04:35:05;;;;;;;9.40;8.40;;;14.10;99.90;;;;;;5012079;28;20050;-54
2022/05/14 04:37:33;;;;;;;14.10;9.85;;;14.20;99.90;;;;;;4995234;28;20088;-52
2022/05/14 04:40:00;;;;;;;10.98;8.85;;;14.20;99.90;;;;;;4995417;28;20046;-52
2022/05/14 04:42:27;;;;;;;10.13;8.02;;;14.30;99.90;;;;;;4997109;28;20080;-53
2022/05/14 04:44:55;;;;;;;10.85;9.27;;;14.30;99.90;;;;;;4995468;28;20056;-62
2022/05/14 04:47:22;;;;;;;11.80;9.25;;;14.30;99.90;;;;;;4977474;28;20042;-58
2022/05/14 04:49:50;;;;;;;11.07;9.18;;;14.30;99.90;;;;;;4995177;28;20145;-55
2022/05/14 04:52:19;;;;;;;13.10;9.73;;;14.40;99.90;;;;;;4996655;28;20101;-55
2022/05/14 04:54:47;;;;;;;12.23;9.50;;;14.40;99.90;;;;;;4995351;28;20042;-56
2022/05/14 04:57:14;;;;;;;13.48;9.90;;;14.50;99.90;;;;;;4995479;28;20144;-58
2022/05/14 04:59:41;;;;;;;11.50;9.30;;;14.50;99.90;;;;;;4979557;28;20136;-55
2022/05/14 05:04:56;;;;;;;13.50;9.43;;;14.60;99.90;;;;;;4995048;28;20439;-61
2022/05/14 05:07:23;;;;;;;12.43;10.35;;;14.60;99.90;;;;;;4995219;28;20128;-60
2022/05/14 05:09:51;;;;;;;13.32;10.38;;;14.70;99.90;;;;;;4996135;28;20030;-59
2022/05/14 05:12:18;;;;;;;13.32;10.05;;;14.70;99.90;;;;;;4997303;28;20045;-59
2022/05/14 05:14:45;;;;;;;;;;;14.70;99.90;;;;;;4995835;28;20050;-60
2022/05/14 05:17:12;;;;;;;11.47;9.17;;;14.70;99.90;;;;;;5011745;28;20370;-58
2022/05/14 05:19:39;;;;;;;11.85;8.82;;;14.70;99.90;;;;;;4994912;28;21235;-55
2022/05/14 05:22:06;;;;;;;14.95;9.25;;;14.70;99.90;;;;;;4995390;28;20054;-56
2022/05/14 05:24:33;;;;;;;12.93;8.75;;;14.70;99.90;;;;;;4995203;28;20069;-57
2022/05/14 05:27:00;;;;;;;;;;;14.70;99.90;;;;;;4994753;28;20679;-58
2022/05/14 05:29:27;;;;;;;13.98;9.45;;;14.70;99.90;;;;;;5011846;28;19987;-58
2022/05/14 05:31:54;;;;;;;13.73;9.02;;;14.70;99.90;;;;;;5010683;28;20046;-60
2022/05/14 05:34:21;;;;;;;12.48;9.05;;;14.70;99.90;;;;;;4993324;28;20046;-60
2022/05/14 05:36:48;;;;;;;12.23;9.60;;;14.70;99.90;;;;;;4992095;28;20054;-59
2022/05/14 05:39:15;;;;;;;12.32;9.00;;;14.70;99.90;;;;;;4995231;28;20050;-59
2022/05/14 05:41:42;;;;;;;;;;;14.80;99.90;;;;;;4964058;28;20046;-53
2022/05/14 05:44:08;;;;;;;18.25;10.52;;;14.80;99.90;;;;;;4959999;28;19983;-53
2022/05/14 05:46:35;;;;;;;15.15;9.25;;;14.90;99.90;;;;;;4975203;28;20046;-54
2022/05/14 05:49:04;;;;;;;12.93;10.60;;;14.90;99.90;;;;;;4974987;28;20699;-53
2022/05/14 05:51:32;;;;;;;12.65;10.27;;;15.00;99.90;;;;;;4976848;28;20050;-55
2022/05/14 05:56:47;;;;;;;12.23;9.05;;;15.10;99.90;;;;;;4977031;28;20050;-56
2022/05/14 05:59:16;;;;;;;14.05;9.50;;;15.20;99.90;;;;;;4959286;28;20078;-55
2022/05/14 06:01:44;;;;;;;12.10;9.02;;;15.30;99.90;;;;;;4975551;28;20058;-54
2022/05/14 06:04:12;;;;;;;14.32;9.30;;;15.40;99.90;;;;;;4982957;28;21418;-54
2022/05/14 06:06:41;;;;;;;10.05;8.30;;;15.40;99.90;;;;;;4995335;28;20045;-52
2022/05/14 06:09:14;;;;;;;12.52;10.13;;;15.50;99.90;;;;;;4999382;28;20415;-54
2022/05/14 06:11:42;;;;;;;11.43;9.60;;;15.60;99.90;;;;;;4999079;28;20088;-56
2022/05/14 06:14:10;;;;;;;21.27;9.98;;;15.70;99.90;;;;;;5014835;28;20045;-54
2022/05/14 06:16:37;;;;;;;19.55;9.68;;;15.80;99.90;;;;;;5007952;28;20140;-53
2022/05/14 06:19:05;;;;;;;11.15;8.93;;;15.80;99.90;;;;;;4999435;28;20042;-52
2022/05/14 06:21:33;;;;;;;11.57;8.38;;;15.80;99.90;;;;;;4999060;28;20515;-53
2022/05/14 06:24:00;;;;;;;17.65;8.77;;;15.90;99.90;;;;;;4998085;28;20072;-54
2022/05/14 06:26:27;;;;;;;15.73;8.35;;;15.90;99.90;;;;;;4997815;28;20052;-53
2022/05/14 06:28:54;;;;;;;;;;;16.00;99.90;;;;;;4998586;28;20054;-51
2022/05/14 06:31:21;;;;;;;14.43;8.35;;;16.10;99.90;;;;;;4998210;28;19932;-53
2022/05/14 06:33:48;;;;;;;18.33;9.68;;;16.30;99.90;;;;;;4993575;28;20046;-55
2022/05/14 06:36:15;;;;;;;17.95;9.38;;;16.50;99.90;;;;;;5000973;28;20116;-54
2022/05/14 06:38:42;;;;;;;14.15;9.00;;;16.70;99.90;;;;;;4970597;28;20061;-51
2022/05/14 06:41:11;;;;;;;;;;;16.80;99.90;;;;;;4990303;28;20571;-54
2022/05/14 06:43:39;;;;;;;13.68;8.40;;;16.90;99.90;;;;;;5013859;28;19925;-53
2022/05/14 06:46:06;;;;;;;10.98;7.95;;;17.00;99.90;;;;;;4999453;28;20339;-52
2022/05/14 06:48:33;;;;;;;13.65;7.97;;;17.00;99.90;;;;;;5013656;28;20554;-53
2022/05/14 06:51:04;;;;;;;11.68;7.88;;;17.00;99.90;;;;;;4997752;28;20050;-52
2022/05/14 06:53:34;;;;;;;14.48;8.50;;;17.10;99.90;;;;;;4997559;28;20046;-53
2022/05/14 06:56:01;;;;;;;16.48;10.32;;;17.10;99.90;;;;;;4997062;28;20050;-51
2022/05/14 06:58:33;;;;;;;17.33;10.15;;;17.20;99.90;;;;;;4996629;28;20046;-52
2022/05/14 07:01:00;;;;;;;12.80;8.63;;;17.30;99.90;;;;;;4997354;28;20520;-53
2022/05/14 07:09:01;;;;;;;15.05;9.63;;;17.40;99.90;;;;;;5013435;28;20042;-53
2022/05/14 07:11:28;;;;;;;14.32;8.52;;;17.40;99.90;;;;;;4997222;28;20057;-54
2022/05/14 07:13:55;;;;;;;16.52;9.07;;;17.40;99.90;;;;;;4997594;28;20053;-50
2022/05/14 07:16:22;;;;;;;21.67;9.95;;;17.50;99.90;;;;;;4996858;28;20045;-50
2022/05/14 07:18:49;;;;;;;91.78;17.05;;;17.60;99.90;;;;;;4996392;28;20049;-51
2022/05/14 07:21:16;;;;;;;69.22;15.13;;;17.70;99.90;;;;;;4997118;28;20042;-51
2022/05/14 07:23:43;;;;;;;20.35;8.60;;;17.80;99.90;;;;;;4997560;28;20137;-55
2022/05/14 07:26:10;;;;;;;10.80;7.47;;;17.80;99.90;;;;;;4996518;28;20065;-56
2022/05/14 07:28:38;;;;;;;15.43;8.40;;;17.90;99.90;;;;;;4997977;28;20049;-54
2022/05/14 07:31:04;;;;;;;9.23;6.32;;;18.00;99.90;;;;;;4998647;28;20448;-55
2022/05/14 07:33:32;;;;;;;46.88;13.15;;;18.00;99.90;;;;;;4997492;28;20053;-51
2022/05/14 07:36:05;;;;;;;22.23;8.57;;;18.10;99.90;;;;;;4996542;28;20122;-55
2022/05/14 07:38:35;;;;;;;18.67;9.45;;;18.20;99.90;;;;;;4997376;28;20057;-52
2022/05/14 07:41:03;;;;;;;13.95;9.63;;;18.20;99.90;;;;;;5002970;28;20046;-54
2022/05/14 07:43:33;;;;;;;11.50;7.85;;;18.20;99.90;;;;;;4976706;28;20077;-54
2022/05/14 07:46:07;;;;;;;12.55;8.77;;;18.30;99.90;;;;;;4976831;28;20049;-53
2022/05/14 07:48:36;;;;;;;168.25;21.98;;;18.40;99.90;;;;;;4960414;28;20061;-59
2022/05/14 07:51:06;;;;;;;22.42;9.50;;;18.50;99.90;;;;;;4977043;28;20050;-59
2022/05/14 07:53:33;;;;;;;12.85;8.32;;;18.60;99.90;;;;;;4976609;28;20050;-57
2022/05/14 07:56:03;;;;;;;15.57;9.02;;;18.70;99.90;;;;;;4978444;28;20118;-60
2022/05/14 07:58:30;;;;;;;21.92;8.77;;;18.70;99.90;;;;;;4976150;28;20112;-62
2022/05/14 08:00:58;;;;;;;10.93;7.80;;;18.80;99.90;;;;;;4976679;28;20125;-60
2022/05/14 08:03:26;;;;;;;22.65;9.35;;;18.90;99.90;;;;;;4960654;28;20050;-61
2022/05/14 08:05:54;;;;;;;9.75;7.78;;;19.20;99.90;;;;;;4976040;28;20077;-58
2022/05/14 08:08:22;;;;;;;18.05;8.63;;;19.60;99.90;;;;;;4975552;28;20039;-57
2022/05/14 08:10:49;;;;;;;19.88;8.23;;;20.00;99.90;;;;;;4973929;28;20049;-59
2022/05/14 08:13:17;;;;;;;14.38;8.45;;;20.40;99.90;;;;;;4975381;28;20050;-58
2022/05/14 08:15:46;;;;;;;13.52;8.13;;;20.80;99.90;;;;;;4977951;28;20064;-57
2022/05/14 08:18:16;;;;;;;11.70;8.27;;;20.90;99.90;;;;;;4993226;28;20146;-57
2022/05/14 08:20:45;;;;;;;12.50;7.65;;;21.00;99.90;;;;;;4977506;28;20045;-59
2022/05/14 08:26:04;;;;;;;12.65;7.28;;;21.30;99.90;;;;;;4995117;28;20069;-60
2022/05/14 08:28:31;;;;;;;15.63;7.20;;;21.50;99.90;;;;;;4993699;28;20073;-56
2022/05/14 08:31:00;;;;;;;10.80;8.02;;;21.80;99.90;;;;;;4993442;28;20042;-60
2022/05/14 08:33:28;;;;;;;15.93;7.72;;;22.10;99.90;;;;;;4982738;28;20046;-58
2022/05/14 08:35:55;;;;;;;13.23;7.70;;;22.30;99.90;;;;;;4984008;28;20042;-63
2022/05/14 08:38:23;;;;;;;12.68;6.85;;;22.50;99.90;;;;;;5000936;28;20901;-63
2022/05/14 08:40:57;;;;;;;8.50;6.38;;;22.70;99.90;;;;;;4985005;28;20145;-62
2022/05/14 08:43:31;;;;;;;12.63;7.30;;;22.90;99.90;;;;;;4973794;28;20132;-62
2022/05/14 08:45:59;;;;;;;8.63;6.10;;;23.10;99.90;;;;;;4974248;28;20096;-63
2022/05/14 08:48:34;;;;;;;12.95;7.00;;;23.20;99.90;;;;;;4973652;28;20043;-60
2022/05/14 08:51:13;;;;;;;12.77;5.70;;;23.30;99.90;;;;;;4975902;28;20043;-62
2022/05/14 08:53:43;;;;;;;17.63;7.80;;;23.40;99.90;;;;;;4975236;28;20042;-63
2022/05/14 08:56:23;;;;;;;9.75;6.00;;;23.60;99.90;;;;;;4958278;28;20075;-63
2022/05/14 08:59:40;;;;;;;10.95;6.28;;;23.80;99.90;;;;;;4974540;28;20038;-63
2022/05/14 09:02:14;;;;;;;15.05;6.05;;;24.10;99.90;;;;;;4952983;28;20054;-62
2022/05/14 09:04:42;;;;;;;9.25;5.60;;;24.40;99.70;;;;;;4952125;28;20051;-64
2022/05/14 09:07:09;;;;;;;11.20;5.97;;;24.60;97.50;;;;;;4955080;28;20047;-63
2022/05/14 09:09:47;;;;;;;8.60;5.35;;;24.80;96.40;;;;;;4957155;28;20050;-63
2022/05/14 09:12:16;;;;;;;7.85;5.85;;;24.90;95.40;;;;;;4974711;28;20054;-64
2022/05/14 09:14:45;;;;;;;9.55;5.75;;;25.00;95.70;;;;;;4975839;28;20035;-59
2022/05/14 09:17:21;;;;;;;13.13;6.75;;;25.10;93.90;;;;;;4988172;28;20077;-61
2022/05/14 09:19:53;;;;;;;7.85;5.18;;;25.30;93.40;;;;;;4993398;28;20602;-59
2022/05/14 09:22:22;;;;;;;12.40;7.28;;;25.40;93.10;;;;;;4993805;28;20054;-59
2022/05/14 09:25:01;;;;;;;14.40;7.15;;;25.60;91.50;;;;;;4993303;28;20038;-57
2022/05/14 09:27:45;;;;;;;11.02;7.13;;;25.60;92.30;;;;;;4993017;28;20052;-58
2022/05/14 09:30:41;;;;;;;17.35;7.88;;;25.70;92.10;;;;;;5010046;28;20161;-60
2022/05/14 09:33:40;;;;;;;9.98;6.63;;;25.70;90.20;;;;;;4993675;28;20500;-59
2022/05/14 09:36:29;;;;;;;10.40;7.03;;;25.70;84.50;;;;;;4993782;28;20038;-58
2022/05/14 09:39:10;;;;;;;10.85;7.47;;;25.60;84.90;;;;;;4992645;28;20041;-58
2022/05/14 09:41:44;;;;;;;8.40;6.07;;;25.50;83.40;;;;;;4977164;28;20672;-58
2022/05/14 09:44:27;;;;;;;13.38;7.53;;;25.30;86.60;;;;;;5013536;28;20034;-56
2022/05/14 09:47:15;;;;;;;24.05;10.05;;;25.10;87.50;;;;;;5013532;28;20777;-57
2022/05/14 09:49:55;;;;;;;14.02;9.52;;;25.10;91.00;;;;;;4996860;28;20038;-58
2022/05/14 09:52:28;;;;;;;13.65;8.60;;;25.00;88.80;;;;;;5012831;28;20049;-57
2022/05/14 09:54:56;;;;;;;17.27;10.73;;;24.90;90.30;;;;;;4996375;28;20860;-57
2022/05/14 09:57:42;;;;;;;17.83;10.10;;;24.90;91.90;;;;;;5012783;28;20041;-61
2022/05/14 10:00:21;;;;;;;11.50;7.53;;;24.90;93.10;;;;;;4997042;28;20061;-59
2022/05/14 10:02:51;;;;;;;12.75;7.28;;;25.10;92.60;;;;;;4996638;28;20054;-59
2022/05/14 10:05:27;;;;;;;11.30;7.80;;;25.30;91.40;;;;;;4996346;28;20049;-60
2022/05/14 10:08:00;;;;;;;12.95;8.32;;;25.50;88.70;;;;;;5012567;28;20504;-61
2022/05/14 10:10:45;;;;;;;15.10;8.27;;;25.80;89.30;;;;;;5012279;28;20089;-61
2022/05/14 10:13:33;;;;;;;13.07;7.63;;;26.00;85.10;;;;;;4980710;28;20057;-62
2022/05/14 10:16:19;;;;;;;10.82;6.57;;;26.00;85.10;;;;;;4980984;28;20092;-63
2022/05/14 10:19:05;;;;;;;12.02;7.20;;;26.00;81.20;;;;;;4995851;28;20448;-63
2022/05/14 10:21:48;;;;;;;11.07;6.88;;;25.70;81.50;;;;;;5012539;28;20888;-61
2022/05/14 10:27:34;;;;;;;9.18;6.78;;;25.00;80.00;;;;;;5011592;28;20137;-63
2022/05/14 10:30:21;;;;;;;10.77;6.97;;;24.60;81.60;;;;;;5012556;28;20675;-61
2022/05/14 10:32:54;;;;;;;7.55;5.80;;;24.40;87.20;;;;;;4995397;28;20057;-63
2022/05/14 10:35:29;;;;;;;9.57;6.45;;;24.40;86.10;;;;;;4997483;28;20089;-62
2022/05/14 10:38:13;;;;;;;8.93;7.00;;;24.50;85.80;;;;;;4993229;28;20145;-61
2022/05/14 10:40:48;;;;;;;11.82;6.95;;;24.60;86.90;;;;;;5005171;28;20046;-61
2022/05/14 10:43:38;;;;;;;10.32;6.38;;;24.70;83.10;;;;;;4979196;28;20056;-62
2022/05/14 10:46:11;;;;;;;8.20;5.97;;;25.00;83.40;;;;;;4997280;28;20046;-62
2022/05/14 10:48:49;;;;;;;7.70;5.50;;;25.30;82.60;;;;;;4996507;28;20056;-63
2022/05/14 10:51:28;;;;;;;8.95;5.65;;;25.50;81.50;;;;;;4995611;28;20495;-62
2022/05/14 10:53:58;;;;;;;13.23;6.88;;;25.80;81.80;;;;;;4995616;28;20042;-61
2022/05/14 10:56:25;;;;;;;8.32;5.25;;;26.00;75.40;;;;;;4997004;28;20067;-59
2022/05/14 10:58:51;;;;;;;10.05;5.88;;;26.00;75.00;;;;;;4996858;28;20045;-59
2022/05/14 11:01:49;;;;;;;12.48;6.43;;;25.90;74.00;;;;;;4994985;28;20074;-64
2022/05/14 11:04:24;;;;;;;9.38;5.85;;;25.80;73.40;;;;;;4995423;28;20100;-59
2022/05/14 11:06:58;;;;;;;15.25;6.60;;;25.60;74.00;;;;;;4994697;28;20048;-57
2022/05/14 11:09:42;;;;;;;11.98;5.22;;;25.40;74.50;;;;;;4996332;28;20056;-58
2022/05/14 11:12:18;;;;;;;9.85;4.93;;;25.20;77.50;;;;;;4994842;28;20048;-58
2022/05/14 11:14:48;;;;;;;7.82;5.82;;;25.20;76.40;;;;;;4983493;28;20133;-59
2022/05/14 11:17:17;;;;;;;9.98;5.50;;;25.10;75.30;;;;;;4991249;28;20048;-58
2022/05/14 11:19:44;;;;;;;9.93;6.15;;;25.10;78.00;;;;;;4995233;28;20054;-60
2022/05/14 11:22:27;;;;;;;10.85;6.22;;;25.20;77.60;;;;;;4995209;28;20042;-59
2022/05/14 11:24:54;;;;;;;8.23;6.03;;;25.20;76.80;;;;;;5011567;28;20145;-61
2022/05/14 11:27:31;;;;;;;7.88;5.13;;;25.10;76.90;;;;;;4994547;28;20038;-62
2022/05/14 11:30:03;;;;;;;11.98;5.63;;;25.20;75.20;;;;;;4995255;28;20132;-62
2022/05/14 11:32:48;;;;;;;9.63;5.35;;;25.20;76.00;;;;;;4994046;28;20066;-62
2022/05/14 11:35:17;;;;;;;11.52;5.20;;;25.30;75.10;;;;;;5011719;28;20501;-57
2022/05/14 11:37:49;;;;;;;6.80;4.90;;;25.40;75.00;;;;;;5008969;28;20520;-61
2022/05/14 11:40:17;;;;;;;5.70;4.05;;;25.50;74.50;;;;;;4994111;28;20286;-59
2022/05/14 11:43:06;;;;;;;8.95;4.93;;;25.70;73.40;;;;;;4976914;28;20750;-62
2022/05/14 11:45:34;;;;;;;4.57;3.90;;;25.80;73.00;;;;;;4974714;28;20169;-61
2022/05/14 11:48:06;;;;;;;9.27;3.80;;;26.00;73.90;;;;;;4976331;28;20042;-59
2022/05/14 11:50:40;;;;;;;7.47;5.10;;;26.20;71.60;;;;;;4976548;28;20042;-61
2022/05/14 11:53:37;;;;;;;12.70;5.15;;;26.40;71.60;;;;;;4976554;28;20050;-58
2022/05/14 11:56:18;;;;;;;6.72;5.32;;;26.50;69.60;;;;;;4976011;28;20053;-59
2022/05/14 11:58:58;;;;;;;7.80;4.47;;;26.60;69.90;;;;;;4974520;28;20141;-58
2022/05/14 12:01:31;;;;;;;14.02;6.20;;;26.70;68.40;;;;;;4975058;28;20295;-61
2022/05/14 12:04:01;;;;;;;10.45;3.83;;;26.90;67.30;;;;;;4990980;28;20042;-61
2022/05/14 12:07:19;;;;;;;4.88;3.55;;;27.00;65.60;;;;;;4990104;28;20066;-59
2022/05/14 12:10:07;;;;;;;6.38;3.85;;;27.00;66.20;;;;;;4973951;28;20053;-60
2022/05/14 12:12:46;;;;;;;11.95;4.60;;;27.20;64.80;;;;;;4976470;28;20042;-60
2022/05/14 12:15:15;;;;;;;8.15;4.20;;;27.10;62.10;;;;;;4976432;28;20053;-63
2022/05/14 12:17:50;;;;;;;8.52;3.53;;;26.90;61.40;;;;;;4992885;28;20627;-62
2022/05/14 12:20:29;;;;;;;7.65;3.63;;;26.80;62.40;;;;;;4995565;28;20060;-63
2022/05/14 12:23:03;;;;;;;5.25;3.35;;;26.70;62.70;;;;;;4993407;28;20072;-60
2022/05/14 12:25:45;;;;;;;4.75;3.15;;;26.70;62.20;;;;;;4994181;28;20169;-58
2022/05/14 12:28:33;;;;;;;5.10;4.00;;;26.90;63.30;;;;;;4993670;28;20073;-62
2022/05/14 12:34:00;;;;;;;13.43;4.55;;;27.00;62.70;;;;;;5010018;28;20064;-59
2022/05/14 12:36:32;;;;;;;6.30;4.18;;;27.10;62.50;;;;;;4995039;28;20121;-62
2022/05/14 12:39:03;;;;;;;12.30;4.10;;;27.10;60.50;;;;;;5001069;28;20041;-62
2022/05/14 12:41:39;;;;;;;14.43;4.55;;;26.80;60.20;;;;;;4991083;28;20841;-61
2022/05/14 12:44:10;;;;;;;18.63;6.28;;;26.40;61.30;;;;;;5010050;28;20045;-60
2022/05/14 12:46:39;;;;;;;19.33;5.50;;;26.10;62.90;;;;;;5009826;28;20143;-60
2022/05/14 12:49:07;;;;;;;12.27;5.43;;;25.90;65.60;;;;;;4992895;28;20045;-60
2022/05/14 12:51:34;;;;;;;10.95;4.45;;;25.80;65.00;;;;;;4994001;28;20041;-59
2022/05/14 12:54:00;;;;;;;8.77;4.20;;;25.70;65.70;;;;;;5010292;28;20711;-62
2022/05/14 12:56:36;;;;;;;8.95;4.47;;;25.70;65.10;;;;;;4994857;28;20053;-60
2022/05/14 12:59:04;;;;;;;5.70;3.90;;;25.80;65.00;;;;;;4994739;28;20061;-62
2022/05/14 13:01:31;;;;;;;6.38;4.00;;;26.00;66.00;;;;;;5009718;28;20057;-60
2022/05/14 13:04:04;;;;;;;7.38;4.35;;;26.20;64.20;;;;;;4993296;28;20050;-60
2022/05/14 13:06:34;;;;;;;6.28;3.60;;;26.30;62.50;;;;;;5009148;28;20112;-59
2022/05/14 13:09:07;;;;;;;7.68;4.18;;;26.50;66.00;;;;;;4992416;28;20200;-58
2022/05/14 13:11:43;;;;;;;8.18;3.65;;;26.60;61.60;;;;;;4993044;28;20543;-56
2022/05/14 13:14:10;;;;;;;12.77;4.82;;;26.70;59.70;;;;;;4995774;28;20504;-58
2022/05/14 13:16:37;;;;;;;4.50;3.15;;;26.60;59.20;;;;;;4997866;28;20065;-61
2022/05/14 13:19:45;;;;;;;7.60;3.90;;;26.40;60.20;;;;;;5000119;28;20057;-59
2022/05/14 13:22:31;;;;;;;6.28;3.88;;;26.30;60.00;;;;;;4998458;28;20056;-58
2022/05/14 13:25:02;;;;;;;6.65;3.90;;;26.30;63.50;;;;;;5000038;28;20096;-60
2022/05/14 13:27:35;;;;;;;7.85;4.15;;;26.40;63.20;;;;;;4999316;28;20052;-58
2022/05/14 13:30:13;;;;;;;9.68;4.10;;;26.60;61.50;;;;;;5016392;28;20045;-60
2022/05/14 13:32:41;;;;;;;8.70;3.60;;;26.50;61.10;;;;;;5001268;28;20045;-59